Date,TemperatureHighF,TemperatureAvgF,TemperatureLowF,DewpointHighF,DewpointAvgF,DewpointLowF,HumidityHigh,HumidityAvg,HumidityLow,PressureMaxIn,PressureMinIn,WindSpeedMaxMPH,WindSpeedAvgMPH,GustSpeedMaxMPH,PrecipitationSumIn
2013-1-1,20,8,1,5,-2,-8,88,66,33,30.48,30.18,12,2,15,0.00
2013-1-2,22,9,-1,1,-4,-9,76,56,36,30.61,30.25,14,2,19,0.00
2013-1-3,30,11,-2,0,-6,-13,63,46,23,30.75,30.34,4,1,10,0.00
2013-1-4,24,13,9,3,-1,-4,65,54,39,30.46,30.28,2,1,4,0.00
2013-1-5,41,24,13,8,0,-5,51,36,18,30.45,29.99,10,2,18,0.00
2013-1-6,40,19,3,7,0,-9,59,44,22,30.58,30.10,11,2,13,0.00
2013-1-7,40,22,7,8,2,-3,62,44,23,30.30,29.89,10,1,16,0.00
2013-1-8,41,29,18,18,9,-3,58,42,27,30.28,29.81,18,8,30,0.00
2013-1-9,27,19,13,10,6,3,65,57,48,30.45,30.21,15,6,17,0.00
2013-1-10,35,24,10,14,7,1,69,51,30,30.16,29.51,9,1,13,0.00
2013-1-11,24,16,6,18,3,-10,87,58,31,29.97,29.31,33,10,40,0.00
2013-1-12,15,3,-8,-5,-12,-16,68,51,32,30.27,29.96,17,3,22,0.00
2013-1-13,7,-3,-11,-4,-13,-20,76,61,48,30.43,30.20,8,2,12,0.00
2013-1-14,12,0,-10,0,-10,-16,78,63,44,30.53,30.23,21,3,23,0.00
2013-1-15,24,11,-3,9,-3,-16,64,52,44,30.48,30.20,34,21,42,0.00
2013-1-16,43,26,12,20,12,4,72,57,38,30.44,30.09,28,9,35,0.00
2013-1-17,40,24,10,17,11,4,79,61,39,30.58,30.35,7,0,9,0.00
2013-1-18,44,27,11,11,6,1,73,44,20,30.50,30.14,21,4,25,0.00
2013-1-19,48,31,16,10,3,-2,46,32,17,30.40,30.11,16,4,23,0.00
2013-1-20,46,32,18,6,2,-5,43,28,15,30.25,30.03,14,4,23,0.00
2013-1-21,45,29,17,10,3,-3,55,34,19,30.31,30.11,12,3,20,0.00
2013-1-22,52,36,18,4,-4,-9,32,19,10,30.34,29.95,23,6,28,0.00
2013-1-23,57,35,16,4,-3,-9,34,21,8,30.42,29.96,24,4,31,0.00
2013-1-24,51,43,28,25,14,-2,57,33,14,30.00,29.81,36,14,48,0.00
2013-1-25,48,38,27,28,25,21,79,59,44,30.14,29.84,27,6,29,0.00
2013-1-26,44,35,28,32,25,18,95,69,46,29.98,29.57,22,3,33,0.07
2013-1-27,44,35,27,32,25,17,100,72,38,29.77,29.55,22,3,32,0.22
2013-1-28,34,28,20,30,22,13,93,79,57,29.67,29.47,16,3,33,0.17
2013-1-29,18,14,11,15,6,-2,87,68,54,29.80,29.60,19,10,31,0.00
2013-1-30,24,16,2,13,4,-9,65,57,48,30.18,30.02,26,13,34,0.00
2013-1-31,34,28,23,17,13,10,68,52,39,30.17,30.02,32,16,40,0.00
2013-2-1,36,30,19,16,13,8,63,49,38,30.20,29.99,32,13,37,0.00
2013-2-2,47,32,21,14,10,5,57,40,20,30.37,30.08,31,5,37,0.00
2013-2-3,43,30,16,13,7,0,60,40,16,30.28,29.85,33,7,38,0.00
2013-2-4,46,32,18,9,6,2,52,35,19,30.07,29.82,26,9,35,0.00
2013-2-5,49,34,22,18,12,8,66,43,24,30.06,29.76,24,5,33,0.00
2013-2-6,45,32,20,20,16,13,76,54,28,29.95,29.71,23,6,28,0.00
2013-2-7,42,28,17,18,9,2,69,49,19,30.17,29.86,17,5,24,0.00
2013-2-8,40,27,12,22,14,4,82,58,37,30.15,29.55,25,6,33,0.00
2013-2-9,31,27,20,21,13,2,81,58,31,29.58,29.35,24,6,30,0.00
2013-2-10,28,21,14,15,4,-2,88,50,30,29.93,29.57,18,5,28,0.00
2013-2-11,20,13,4,14,8,-3,88,81,68,30.27,29.93,11,1,14,0.08
2013-2-12,29,15,1,9,1,-7,75,55,35,30.40,30.10,26,13,32,0.01
2013-2-13,34,25,16,15,10,4,62,51,43,30.17,29.95,28,15,34,0.00
2013-2-14,34,26,15,14,8,1,77,47,25,30.24,29.94,26,7,28,0.00
2013-2-15,31,23,13,11,7,-1,82,53,26,30.41,30.15,29,10,39,0.00
2013-2-16,46,33,19,13,8,5,54,37,22,30.39,29.92,23,11,39,0.00
2013-2-17,46,32,15,21,3,-5,78,34,13,29.99,29.51,33,10,40,0.00
2013-2-18,31,22,10,17,2,-5,77,45,21,30.19,29.49,26,10,36,0.00
2013-2-19,39,21,2,6,-2,-9,59,39,18,30.29,29.71,14,4,20,0.00
2013-2-20,36,24,14,24,13,3,92,67,41,29.77,29.44,12,1,23,0.00
2013-2-21,36,23,12,22,15,4,91,73,44,29.88,29.44,17,3,21,0.23
2013-2-22,28,17,5,15,5,-2,76,60,43,30.13,29.85,19,6,32,0.00
2013-2-23,34,21,9,22,9,-2,89,61,43,30.04,29.60,26,6,36,0.00
2013-2-24,23,17,4,18,10,-3,90,76,46,30.25,29.55,20,5,27,0.00
2013-2-25,33,19,1,11,4,-5,79,54,35,30.30,29.85,26,12,33,0.00
2013-2-26,25,18,12,16,6,2,77,60,45,30.20,29.73,22,12,30,0.00
2013-2-27,28,16,2,4,-1,-8,65,48,30,30.46,30.20,20,11,26,0.00
2013-2-28,32,20,6,14,4,-8,72,48,38,30.50,30.20,31,14,33,0.00
2013-3-1,38,28,14,20,15,6,73,59,45,30.45,30.24,33,13,39,0.00
2013-3-2,50,37,25,24,19,14,68,48,30,30.36,29.99,26,11,31,0.00
2013-3-3,48,38,28,25,18,13,75,47,27,30.00,29.54,31,11,46,0.00
2013-3-4,42,29,16,30,20,2,94,70,36,30.12,29.53,28,9,36,0.06
2013-3-5,49,28,10,12,2,-6,64,37,12,30.39,30.06,22,5,28,0.00
2013-3-6,53,35,18,18,11,4,61,38,18,30.14,29.74,20,4,30,0.00
2013-3-7,55,39,27,17,11,5,55,35,14,29.89,29.68,25,3,29,0.00
2013-3-8,48,33,22,30,20,12,95,62,29,29.92,29.39,21,2,31,0.00
2013-3-9,29,26,18,28,22,9,95,85,61,30.03,29.42,16,2,22,0.17
2013-3-10,35,24,15,17,10,5,65,56,43,30.19,29.97,38,21,40,0.00
2013-3-11,46,32,21,20,14,10,61,47,30,30.11,29.79,27,11,33,0.00
2013-3-12,48,38,29,22,18,15,68,45,26,30.10,29.85,19,7,30,0.00
2013-3-13,55,41,33,22,19,14,54,41,23,30.18,29.99,24,8,27,0.00
2013-3-14,60,46,31,22,15,4,55,32,11,30.28,29.98,20,6,29,0.00
2013-3-15,59,45,31,22,19,16,60,39,20,30.03,29.64,28,8,37,0.00
2013-3-16,43,37,32,35,27,18,90,67,38,29.81,29.63,26,3,26,0.04
2013-3-17,41,30,24,32,24,14,91,80,40,29.77,29.51,17,2,30,0.03
2013-3-18,37,29,23,20,13,7,77,51,32,29.92,29.63,29,7,31,0.00
2013-3-19,43,36,29,15,3,-9,55,28,11,29.97,29.83,17,10,26,0.00
2013-3-20,49,32,14,23,11,-4,55,42,23,30.28,29.60,25,6,32,0.00
2013-3-21,38,34,30,31,21,6,87,59,34,29.71,29.41,26,8,33,0.01
2013-3-22,41,29,17,20,8,-1,65,43,20,29.80,29.45,26,7,42,0.00
2013-3-23,25,19,13,16,11,6,85,70,52,30.09,29.54,15,6,23,0.00
2013-3-24,25,9,-5,5,0,-10,93,66,38,30.42,30.12,19,4,26,0.05
2013-3-25,34,16,0,8,-2,-9,65,48,20,30.48,30.16,20,9,23,0.00
2013-3-26,50,31,11,20,11,1,68,46,21,30.24,29.74,27,7,35,0.00
2013-3-27,53,40,28,24,18,13,72,44,21,29.94,29.72,17,5,24,0.00
2013-3-28,51,37,24,26,21,17,78,56,27,30.08,29.89,19,3,24,0.00
2013-3-29,55,42,26,27,24,19,76,50,27,30.11,29.89,23,9,33,0.00
2013-3-30,56,42,27,27,22,14,80,49,22,30.07,29.82,19,4,40,0.00
2013-3-31,58,44,24,26,16,2,76,38,10,30.06,29.77,15,5,24,0.00
2013-4-1,56,40,26,32,21,15,74,48,21,29.93,29.66,23,3,31,0.00
2013-4-2,47,33,26,30,26,20,95,77,37,29.96,29.71,20,2,28,0.00
2013-4-3,49,35,22,31,23,17,95,66,31,30.14,29.88,20,6,27,0.39
2013-4-4,58,43,28,27,22,18,71,46,22,30.11,29.82,16,4,20,0.00
2013-4-5,58,46,36,34,25,18,90,47,22,29.84,29.47,26,7,40,0.05
2013-4-6,54,44,34,34,22,16,92,45,24,29.81,29.58,25,7,31,0.01
2013-4-7,50,42,35,32,24,19,79,51,30,29.70,29.49,28,8,33,0.01
2013-4-8,57,41,29,33,27,17,87,62,22,29.61,29.12,32,6,38,0.00
2013-4-9,36,21,12,29,17,9,90,84,68,30.11,29.23,15,4,20,0.16
2013-4-10,34,21,3,20,11,0,87,69,49,30.19,29.85,26,10,32,0.01
2013-4-11,46,33,22,26,17,9,70,54,31,29.89,29.63,18,8,30,0.00
2013-4-12,49,37,24,26,19,8,84,52,20,29.83,29.67,17,4,28,0.00
2013-4-13,55,41,23,33,20,15,92,49,24,29.83,29.23,40,10,45,0.10
2013-4-14,40,34,28,33,20,12,93,60,34,29.58,29.19,32,11,41,0.13
2013-4-15,44,32,24,33,24,12,89,71,53,29.71,29.33,25,6,30,0.02
2013-4-16,56,33,20,30,21,16,91,67,22,29.85,29.34,35,3,39,0.01
2013-4-17,40,27,14,28,21,9,92,79,39,30.00,29.47,22,4,32,0.05
2013-4-18,30,19,6,12,5,-1,86,58,28,30.31,29.93,40,12,40,0.00
2013-4-19,45,32,18,18,12,4,57,44,28,30.29,29.86,26,9,37,0.00
2013-4-20,47,35,25,26,20,17,74,56,37,29.88,29.71,19,5,22,0.00
2013-4-21,52,41,28,26,19,10,78,45,19,29.95,29.74,24,6,30,0.00
2013-4-22,53,41,23,33,25,17,86,57,24,29.94,29.57,24,9,49,0.00
2013-4-23,36,25,17,27,16,5,90,72,31,30.19,29.83,16,2,23,0.18
2013-4-24,46,30,16,18,11,6,70,47,22,30.20,30.06,23,6,31,0.00
2013-4-25,58,39,23,26,19,12,71,47,21,30.15,29.75,27,4,32,0.00
2013-4-26,57,44,31,26,18,12,64,38,17,30.04,29.73,18,4,25,0.00
2013-4-27,60,45,27,26,19,14,82,42,17,30.12,29.85,20,5,30,0.00
2013-4-28,65,51,33,24,20,17,55,33,18,29.91,29.58,19,9,29,0.00
2013-4-29,65,54,37,29,24,17,63,33,18,29.68,29.28,26,8,32,0.00
2013-4-30,68,57,42,28,21,17,43,26,16,29.39,29.23,30,7,46,0.00
2013-5-1,52,31,18,32,26,16,94,83,39,30.51,29.28,14,2,24,0.01
2013-5-2,43,27,10,22,15,7,92,64,26,30.74,30.38,18,4,25,0.32
2013-5-3,58,42,26,22,16,11,57,36,16,30.38,29.75,17,6,28,0.00
2013-5-4,56,40,28,34,24,18,90,55,25,30.03,29.76,16,2,27,0.04
2013-5-5,54,40,29,32,27,22,88,61,29,30.10,29.82,14,1,21,0.00
2013-5-6,51,40,31,36,30,22,93,67,50,29.92,29.73,14,1,20,0.27
2013-5-7,54,43,32,37,32,25,94,68,33,29.86,29.71,18,5,25,0.00
2013-5-8,44,36,32,35,32,30,95,84,60,30.03,29.72,10,1,13,0.64
2013-5-9,45,35,31,36,31,28,96,87,61,30.15,29.92,13,1,19,0.50
2013-5-10,52,41,28,33,29,24,91,66,40,30.15,30.02,18,2,32,0.00
2013-5-11,60,47,32,32,28,23,83,52,24,30.24,29.97,17,3,22,0.00
2013-5-12,66,53,39,35,31,27,74,46,24,30.06,29.82,19,6,25,0.00
2013-5-13,70,55,39,40,33,28,69,46,25,30.02,29.76,23,2,33,0.00
2013-5-14,70,55,39,40,35,31,77,51,25,29.85,29.58,24,5,37,0.00
2013-5-15,67,51,41,45,38,33,91,64,28,29.83,29.56,25,2,31,0.10
2013-5-16,69,53,36,41,34,27,92,56,21,29.83,29.49,20,3,28,0.01
2013-5-17,73,56,37,33,25,17,70,35,14,29.67,29.43,21,5,33,0.00
2013-5-18,62,50,40,33,27,21,63,42,23,29.69,29.50,24,6,39,0.00
2013-5-19,53,45,38,34,27,21,76,50,31,29.71,29.54,23,10,32,0.00
2013-5-20,56,44,32,34,29,24,77,55,31,29.82,29.62,30,10,35,0.03
2013-5-21,60,48,34,29,26,21,70,44,23,29.90,29.59,22,5,25,0.00
2013-5-22,68,51,33,36,30,24,74,47,19,29.72,29.53,21,3,35,0.01
2013-5-23,73,54,42,40,35,21,85,54,14,29.77,29.45,33,4,38,0.00
2013-5-24,73,58,42,42,30,18,89,44,13,29.78,29.54,23,4,34,0.00
2013-5-25,74,54,37,29,22,16,54,32,12,29.76,29.51,19,4,29,0.00
2013-5-26,74,55,39,28,23,17,52,31,12,29.70,29.44,19,4,28,0.00
2013-5-27,70,57,40,26,20,17,45,25,14,29.60,29.37,21,6,31,0.00
2013-5-28,69,54,34,29,22,16,55,31,15,29.57,29.24,27,7,36,0.00
2013-5-29,59,48,41,32,26,22,67,43,26,29.54,29.25,28,9,34,0.00
2013-5-30,58,50,39,28,22,16,60,35,21,29.58,29.42,33,12,43,0.00
2013-5-31,58,50,41,28,19,12,60,31,18,29.83,29.56,29,12,33,0.00
2013-6-1,69,53,39,29,22,14,50,31,17,29.92,29.67,25,7,30,0.00
2013-6-2,75,56,33,32,27,22,76,38,15,29.89,29.48,18,3,34,0.00
2013-6-3,75,59,39,34,28,24,55,33,16,29.60,29.41,30,6,35,0.00
2013-6-4,72,58,40,37,32,28,64,39,23,29.68,29.50,29,5,40,0.00
2013-6-5,73,56,41,44,36,22,82,54,15,29.81,29.52,23,4,34,0.00
2013-6-6,75,57,37,42,34,23,85,49,15,29.89,29.58,20,4,31,0.00
2013-6-7,71,55,41,41,36,30,76,50,27,29.83,29.49,24,4,29,0.00
2013-6-8,76,61,41,38,32,23,68,38,15,29.60,29.43,22,6,30,0.00
2013-6-9,82,63,40,36,31,24,77,37,12,29.74,29.54,26,5,29,0.00
2013-6-10,86,66,44,37,32,28,55,30,13,29.67,29.41,29,4,33,0.00
2013-6-11,81,66,46,34,26,20,47,25,11,29.63,29.42,27,7,38,0.00
2013-6-12,83,67,45,34,27,22,41,23,14,29.79,29.52,22,7,27,0.00
2013-6-13,81,65,46,40,31,23,47,29,15,29.71,29.52,29,5,53,0.00
2013-6-14,81,66,50,40,32,20,56,31,12,29.64,29.40,21,4,30,0.00
2013-6-15,76,58,41,36,30,24,67,40,16,29.71,29.53,27,4,38,0.00
2013-6-16,71,60,47,43,35,29,65,40,26,29.86,29.60,28,8,41,0.00
2013-6-17,79,58,40,41,36,26,76,48,15,29.95,29.62,18,5,29,0.00
2013-6-18,76,58,40,44,35,28,83,46,20,29.88,29.50,36,4,40,0.00
2013-6-19,81,62,39,41,27,14,79,35,9,29.71,29.36,20,4,32,0.00
2013-6-20,81,64,45,28,21,14,35,20,12,29.55,29.39,22,4,27,0.00
2013-6-21,81,64,41,28,23,18,41,23,12,29.64,29.40,21,4,33,0.00
2013-6-22,78,64,44,28,23,19,38,23,13,29.61,29.39,21,5,36,0.00
2013-6-23,77,61,42,31,26,20,42,27,15,29.64,29.41,22,4,30,0.00
2013-6-24,77,61,41,42,26,21,53,31,13,29.65,29.44,23,5,35,0.00
2013-6-25,79,67,52,33,27,21,32,23,19,29.64,29.40,25,8,31,0.00
2013-6-26,86,68,46,36,32,28,50,29,14,29.76,29.53,17,3,19,0.00
2013-6-27,90,72,53,41,34,31,45,27,13,29.77,29.59,27,5,34,0.00
2013-6-28,87,69,52,51,40,35,63,38,17,29.84,29.62,15,3,26,0.00
2013-6-29,78,62,49,51,44,41,83,55,28,29.95,29.65,14,2,29,0.03
2013-6-30,80,60,45,51,45,38,91,64,23,29.92,29.64,30,4,33,0.11
2013-7-1,76,59,43,54,44,38,91,63,26,30.03,29.73,15,2,22,0.04
2013-7-2,80,60,45,50,44,31,92,61,18,29.93,29.64,24,3,27,0.03
2013-7-3,80,60,43,45,42,32,89,57,19,29.84,29.55,25,3,30,0.01
2013-7-4,82,65,48,45,40,37,73,44,21,29.73,29.43,18,3,24,0.00
2013-7-5,81,66,52,54,45,40,86,51,27,29.55,29.30,17,4,30,0.07
2013-7-6,77,64,54,53,48,45,87,59,33,29.60,29.46,12,2,22,0.06
2013-7-7,80,64,53,56,49,43,88,61,29,29.70,29.53,27,3,36,0.12
2013-7-8,81,62,48,53,45,32,92,62,18,29.86,29.63,23,3,34,0.20
2013-7-9,83,68,50,45,40,36,67,40,20,29.83,29.67,18,2,21,0.00
2013-7-10,80,66,54,53,46,40,71,51,27,29.80,29.61,20,3,32,0.05
2013-7-11,85,66,50,53,47,40,92,57,22,29.78,29.46,20,2,32,0.00
2013-7-12,78,66,55,53,47,44,68,51,34,29.64,29.43,33,5,39,0.01
2013-7-13,79,67,55,50,49,45,77,54,32,29.73,29.54,27,4,34,0.00
2013-7-14,79,62,50,56,49,44,94,68,30,29.90,29.58,20,4,27,0.34
2013-7-15,66,56,49,56,52,47,95,88,65,29.89,29.72,16,1,23,0.20
2013-7-16,72,58,49,52,48,45,93,71,41,29.92,29.71,15,2,22,0.15
2013-7-17,78,62,46,52,47,43,92,62,32,29.95,29.71,12,2,19,0.00
2013-7-18,78,59,52,57,49,44,93,71,36,29.95,29.61,23,3,31,0.44
2013-7-19,74,59,50,54,51,48,95,78,44,29.93,29.66,13,1,18,0.00
2013-7-20,82,64,48,55,46,34,93,59,18,29.83,29.45,18,4,24,0.01
2013-7-21,81,64,50,52,45,25,88,57,13,29.63,29.46,13,1,17,0.00
2013-7-22,79,65,50,51,42,37,73,47,26,29.73,29.54,15,3,21,0.00
2013-7-23,84,67,47,43,37,30,70,38,14,29.75,29.56,11,2,21,0.00
2013-7-24,70,62,55,55,47,40,76,58,40,29.87,29.61,26,2,36,0.01
2013-7-25,76,60,48,52,47,40,89,67,30,29.92,29.66,20,3,25,0.06
2013-7-26,78,61,45,52,47,42,91,65,28,30.05,29.72,13,2,22,0.01
2013-7-27,74,58,47,53,48,42,93,70,35,29.85,29.62,19,4,31,0.14
2013-7-28,66,57,52,55,51,47,95,80,49,29.71,29.55,19,2,23,0.25
2013-7-29,73,61,51,49,46,40,87,61,33,29.83,29.61,26,6,36,0.02
2013-7-30,76,61,45,45,42,39,85,53,29,29.98,29.81,19,4,27,0.00
2013-7-31,80,64,45,44,40,37,75,45,24,30.00,29.70,18,2,21,0.00
2013-8-1,69,59,48,49,45,40,83,60,44,29.91,29.63,25,5,33,0.00
2013-8-2,80,67,54,47,44,42,69,47,27,29.74,29.50,19,5,27,0.00
2013-8-3,79,63,51,50,45,40,78,54,27,29.80,29.61,20,3,26,0.00
2013-8-4,80,62,47,51,46,41,89,59,27,29.90,29.64,21,5,33,0.03
2013-8-5,76,59,47,49,45,39,86,63,29,29.87,29.65,17,3,25,0.00
2013-8-6,76,59,47,50,45,35,89,66,25,29.88,29.62,28,4,33,0.03
2013-8-7,61,52,49,50,46,43,91,81,51,29.92,29.65,15,3,21,0.15
2013-8-8,70,56,47,47,42,36,89,62,29,29.90,29.66,16,3,25,0.02
2013-8-9,70,54,41,47,43,38,89,68,37,29.99,29.75,26,3,36,0.02
2013-8-10,72,57,40,47,41,33,92,60,25,30.06,29.80,25,6,34,0.01
2013-8-11,73,58,44,49,42,36,84,58,27,29.97,29.75,12,1,22,0.00
2013-8-12,73,56,44,48,42,38,86,63,29,29.92,29.76,26,2,40,0.02
2013-8-13,73,57,40,46,39,32,87,57,22,30.02,29.80,27,4,35,0.00
2013-8-14,74,57,42,43,37,26,87,53,18,29.95,29.75,29,6,37,0.00
2013-8-15,80,61,41,37,31,25,70,38,14,29.94,29.73,17,4,31,0.00
2013-8-16,79,63,43,38,33,30,64,36,17,29.96,29.72,12,2,25,0.00
2013-8-17,82,65,46,38,33,30,58,34,16,29.91,29.64,10,2,18,0.00
2013-8-18,80,62,47,49,39,33,61,45,22,29.90,29.62,18,4,32,0.00
2013-8-19,82,64,46,45,42,36,78,48,21,29.89,29.65,21,3,26,0.00
2013-8-20,82,66,48,44,41,37,71,44,21,29.82,29.57,18,5,31,0.00
2013-8-21,80,64,51,49,44,39,66,50,24,29.83,29.56,23,4,32,0.03
2013-8-22,81,64,50,51,45,41,74,53,26,29.89,29.63,20,3,27,0.00
2013-8-23,75,60,48,51,48,44,91,66,36,29.81,29.57,18,3,30,0.05
2013-8-24,76,61,49,50,45,41,80,57,30,29.80,29.56,14,3,25,0.00
2013-8-25,72,60,50,56,50,45,92,72,43,29.87,29.72,12,1,19,0.09
2013-8-26,79,64,51,52,49,46,89,62,31,29.90,29.65,22,5,28,0.01
2013-8-27,83,66,48,50,45,38,86,52,21,29.88,29.57,11,3,25,0.00
2013-8-28,84,67,50,48,44,36,79,49,18,29.75,29.55,16,3,25,0.00
2013-8-29,85,66,48,49,44,38,78,49,20,29.90,29.65,16,3,23,0.00
2013-8-30,74,65,57,49,47,43,72,53,34,29.83,29.66,25,6,35,0.00
2013-8-31,78,62,54,54,49,44,89,63,31,29.80,29.59,18,3,24,0.06
2013-9-1,76,60,49,53,49,40,93,71,29,29.93,29.62,18,2,22,0.22
2013-9-2,79,62,48,53,48,40,94,65,27,29.93,29.65,12,3,21,0.00
2013-9-3,80,64,49,53,47,39,83,59,26,29.86,29.65,18,4,26,0.00
2013-9-4,82,62,52,55,49,44,89,68,30,30.00,29.69,18,2,24,0.12
2013-9-5,82,64,47,51,46,38,92,57,21,30.05,29.70,10,1,15,0.00
2013-9-6,84,66,50,47,43,37,73,46,20,29.87,29.61,21,5,32,0.00
2013-9-7,82,65,48,46,42,37,75,46,23,29.84,29.57,16,3,21,0.00
2013-9-8,79,64,49,49,43,36,75,49,23,29.74,29.44,21,4,27,0.02
2013-9-9,75,61,46,50,45,41,85,58,32,29.67,29.44,16,4,23,0.02
2013-9-10,68,57,52,53,50,46,95,81,49,29.83,29.54,16,2,26,0.15
2013-9-11,66,56,52,54,52,50,95,86,58,29.87,29.70,12,1,18,0.15
2013-9-12,64,56,52,55,52,49,95,87,64,29.91,29.72,8,1,14,0.43
2013-9-13,62,54,48,52,50,45,96,85,63,29.78,29.58,16,2,19,0.21
2013-9-14,66,54,46,49,47,43,95,79,50,29.74,29.52,12,2,23,0.02
2013-9-15,64,51,42,48,44,40,93,79,49,29.98,29.69,10,1,23,0.14
2013-9-16,65,52,45,51,46,42,95,80,50,29.99,29.74,12,1,22,0.03
2013-9-17,71,55,40,47,43,37,92,68,31,29.97,29.56,15,2,20,0.00
2013-9-18,68,52,45,51,44,37,92,76,36,29.75,29.51,22,4,42,0.09
2013-9-19,68,51,40,44,36,25,95,64,22,29.85,29.65,19,3,26,0.00
2013-9-20,70,53,39,41,35,28,90,55,21,29.95,29.68,12,3,20,0.00
2013-9-21,72,54,37,43,36,32,84,53,26,29.91,29.52,19,2,34,0.00
2013-9-22,60,48,42,46,41,36,93,76,56,29.61,29.35,20,2,27,0.32
2013-9-23,55,47,38,38,31,25,83,56,33,29.98,29.33,25,8,36,0.00
2013-9-24,68,49,30,32,27,17,80,49,14,30.12,29.72,23,2,26,0.00
2013-9-25,71,53,33,36,29,24,82,46,19,29.74,29.22,27,5,43,0.00
2013-9-26,68,58,45,30,25,21,44,28,18,29.44,29.19,25,9,33,0.00
2013-9-27,53,46,33,38,28,18,67,50,41,29.86,29.25,31,10,40,0.00
2013-9-28,60,45,33,27,21,13,69,39,21,30.08,29.84,25,8,32,0.00
2013-9-29,65,50,33,24,21,16,61,35,19,30.00,29.67,33,10,36,0.00
2013-9-30,71,59,46,34,26,20,42,29,21,29.77,29.43,24,8,34,0.00
2013-10-1,71,54,35,34,30,24,64,41,23,29.83,29.56,14,4,23,0.00
2013-10-2,69,51,35,31,26,21,66,40,16,29.83,29.55,15,3,20,0.00
2013-10-3,68,52,34,28,25,23,64,38,19,29.69,29.24,26,5,33,0.00
2013-10-4,53,36,27,29,17,10,68,46,34,30.14,29.19,23,12,33,0.00
2013-10-5,49,36,25,16,13,10,62,41,20,30.24,30.04,35,16,38,0.00
2013-10-6,64,47,32,28,20,8,53,36,23,30.25,29.91,26,12,30,0.00
2013-10-7,71,49,30,28,23,19,69,40,16,30.12,29.73,12,2,18,0.00
2013-10-8,67,50,34,27,24,20,60,38,17,29.82,29.46,20,4,29,0.00
2013-10-9,61,47,31,29,24,16,71,42,24,29.76,29.54,23,4,30,0.00
2013-10-10,50,44,37,35,28,19,75,54,35,29.61,29.32,27,6,34,0.01
2013-10-11,39,38,36,25,23,22,62,55,52,29.58,29.46,27,14,34,0.00
2013-10-12,54,39,24,30,24,18,80,56,34,30.12,29.84,13,3,23,0.00
2013-10-13,60,44,27,34,30,23,87,60,29,30.05,29.62,19,4,32,0.00
2013-10-14,47,39,30,34,26,19,89,60,32,30.00,29.50,20,6,37,0.03
2013-10-15,40,31,22,27,24,17,93,76,53,30.18,29.95,12,1,16,0.01
2013-10-16,44,34,24,29,20,14,93,63,31,30.13,29.90,26,7,28,0.03
2013-10-17,50,37,23,20,15,12,61,41,23,30.10,29.76,20,7,32,0.00
2013-10-18,42,34,27,26,14,8,83,47,27,30.12,29.77,28,12,34,0.00
2013-10-19,54,40,25,19,15,9,53,37,22,30.14,29.78,25,9,31,0.00
2013-10-20,48,40,30,20,16,13,49,38,31,29.86,29.67,19,2,25,0.00
2013-10-21,53,38,26,28,20,13,88,52,20,30.09,29.88,17,8,29,0.00
2013-10-22,61,43,26,24,20,15,65,42,23,30.20,29.86,16,3,21,0.00
2013-10-23,63,44,28,22,19,12,63,38,18,30.12,29.82,14,2,20,0.00
2013-10-24,63,43,26,28,20,13,68,42,20,30.17,29.89,7,1,18,0.00
2013-10-25,58,41,26,34,25,19,77,55,30,30.14,29.92,17,2,24,0.00
2013-10-26,58,43,29,30,25,18,76,51,26,30.22,29.94,10,2,15,0.00
2013-10-27,57,42,27,25,20,17,68,44,24,30.08,29.68,24,3,30,0.00
2013-10-28,57,42,28,30,21,17,74,48,21,29.85,29.55,24,3,32,0.00
2013-10-29,50,39,28,32,23,19,87,54,30,29.82,29.55,17,4,29,0.01
2013-10-30,43,35,26,29,16,12,91,47,30,29.81,29.60,26,9,32,0.00
2013-10-31,40,33,25,18,16,12,68,50,36,29.94,29.71,33,9,46,0.00
2013-11-1,46,35,25,23,17,13,73,49,26,30.17,29.90,35,10,37,0.00
2013-11-2,61,38,19,16,10,4,63,36,10,30.32,29.81,21,4,28,0.00
2013-11-3,54,37,25,28,15,6,84,42,26,29.84,29.40,25,6,35,0.00
2013-11-4,45,34,26,23,16,12,65,49,26,29.82,29.54,13,3,26,0.00
2013-11-5,34,26,18,22,12,-1,92,59,32,30.25,29.73,18,10,32,0.04
2013-11-6,41,29,16,16,9,-1,55,43,34,30.42,30.20,26,12,40,0.01
2013-11-7,54,37,20,20,16,10,68,44,23,30.49,29.93,19,3,30,0.00
2013-11-8,54,44,33,18,15,12,48,31,22,29.93,29.69,38,10,40,0.00
2013-11-9,58,42,29,19,16,14,54,36,21,30.16,29.81,17,4,27,0.00
2013-11-10,57,41,26,18,16,12,59,38,21,30.22,29.97,18,5,28,0.00
2013-11-11,57,41,27,20,16,13,58,37,19,30.35,29.96,20,7,22,0.00
2013-11-12,52,32,22,25,18,10,93,60,26,30.65,30.30,5,0,7,0.00
2013-11-13,55,38,20,17,13,9,61,39,20,30.48,29.83,18,3,22,0.00
2013-11-14,51,40,24,24,15,3,68,39,18,29.99,29.66,19,6,25,0.00
2013-11-15,48,35,22,30,20,9,95,59,26,29.74,29.32,29,6,33,0.00
2013-11-16,39,33,26,29,23,17,94,68,42,29.48,29.28,42,11,52,0.08
2013-11-17,40,33,25,25,20,15,93,61,42,30.09,29.49,34,12,43,0.00
2013-11-18,51,33,20,20,16,10,71,52,25,30.26,29.96,23,1,28,0.00
2013-11-19,47,35,20,25,20,12,73,55,37,30.08,29.60,33,9,38,0.00
2013-11-20,48,40,32,30,23,19,92,52,33,29.71,29.52,25,9,32,0.00
2013-11-21,31,27,15,30,25,13,95,93,90,30.42,29.67,9,1,11,0.11
2013-11-22,24,19,13,22,17,10,93,90,87,30.65,30.42,4,0,7,0.00
2013-11-23,25,21,19,22,19,17,93,91,87,30.61,30.38,1,0,4,0.00
2013-11-24,34,22,10,29,19,8,94,87,72,30.41,29.83,25,3,31,0.01
2013-11-25,36,26,13,26,18,10,89,70,54,30.42,29.84,26,7,30,0.06
2013-11-26,34,22,12,21,14,8,90,73,55,30.58,30.35,20,2,25,0.03
2013-11-27,38,23,13,20,14,8,83,67,41,30.52,30.16,6,1,7,0.07
2013-11-28,44,26,14,21,14,6,80,62,38,30.40,30.07,4,1,6,0.00
2013-11-29,44,29,14,22,15,7,76,55,35,30.42,30.15,15,1,20,0.00
2013-11-30,42,27,17,19,12,7,73,54,35,30.41,30.13,15,2,20,0.00
2013-12-1,42,27,15,22,12,5,68,54,34,30.36,29.79,40,11,46,0.00
2013-12-2,42,38,34,23,21,17,59,50,39,29.82,29.47,41,18,42,0.00
2013-12-3,38,31,27,27,22,16,94,73,39,29.51,29.35,24,3,30,0.05
2013-12-4,29,18,2,27,15,-3,95,89,73,30.04,29.25,26,5,33,0.00
2013-12-5,14,0,-14,3,-6,-18,92,76,57,30.35,29.98,8,1,17,0.00
2013-12-6,14,1,-12,3,-7,-16,92,69,45,30.53,30.19,20,3,31,0.00
2013-12-7,17,10,-1,12,4,-9,89,77,61,30.39,29.72,8,1,9,0.00
2013-12-8,17,12,1,12,0,-12,89,59,39,30.13,29.67,23,9,36,0.00
2013-12-9,11,4,-6,-2,-9,-15,65,54,41,30.65,30.08,30,12,56,0.00
2013-12-10,29,20,-4,13,5,-13,64,52,44,30.66,30.10,37,16,49,0.00
2013-12-11,35,22,10,12,6,0,72,51,30,30.62,30.17,23,4,28,0.01
2013-12-12,41,24,9,14,4,-4,59,44,26,30.64,30.03,18,4,29,0.01
2013-12-13,36,28,20,16,11,3,57,48,38,30.06,29.79,31,13,31,0.00
2013-12-14,32,24,16,14,10,6,66,55,42,30.42,30.05,33,16,36,0.00
2013-12-15,41,31,19,20,15,9,65,51,39,30.38,30.11,31,9,34,0.00
2013-12-16,47,38,25,21,15,9,56,39,27,30.25,29.98,26,10,34,0.00
2013-12-17,45,30,18,20,13,7,61,49,29,30.51,30.18,10,1,11,0.00
2013-12-18,50,38,20,18,12,9,63,36,21,30.20,29.52,33,10,39,0.00
2013-12-19,43,35,25,23,18,14,70,50,32,29.64,29.33,22,3,33,0.00
2013-12-20,32,26,19,24,18,11,85,72,56,29.68,29.54,15,3,21,0.00
2013-12-21,28,21,10,14,9,3,72,60,50,29.86,29.49,23,11,31,0.00
2013-12-22,29,20,11,10,5,0,67,53,40,30.19,29.87,27,9,40,0.00
2013-12-23,34,26,18,17,11,5,67,53,39,30.40,30.13,27,9,33,0.00
2013-12-24,38,28,14,26,15,4,81,60,48,30.32,29.98,33,14,35,0.00
2013-12-25,33,21,10,10,4,-3,62,47,33,30.57,30.32,25,8,33,0.00
2013-12-26,40,27,15,19,10,2,61,48,33,30.50,30.23,24,13,31,0.00
2013-12-27,45,28,18,22,15,7,72,57,37,30.45,30.13,8,1,12,0.00
2013-12-28,40,28,17,24,18,11,91,67,47,30.15,29.82,14,2,17,0.00
2013-12-29,27,21,12,21,13,2,92,73,37,30.21,29.95,20,3,27,0.11
2013-12-30,33,24,13,13,9,3,68,52,40,30.37,30.05,21,7,26,0.01
2013-12-31,40,31,13,22,15,3,67,52,40,30.28,29.85,35,11,43,0.00
2014-1-1,34,29,20,25,14,4,87,53,35,30.31,29.77,28,14,35,0.00
2014-1-2,41,30,16,15,8,1,54,40,24,30.41,30.00,19,4,30,0.00